createdAt,value
2019-04-22T00:03:39.082Z,16.80
2019-04-22T00:09:05.511Z,16.80
2019-04-22T00:14:05.625Z,16.70
2019-04-22T00:19:20.896Z,16.80
2019-04-22T00:24:25.575Z,16.80
2019-04-22T00:29:49.891Z,16.70
2019-04-22T00:34:52.065Z,16.70
2019-04-22T00:40:17.345Z,16.70
2019-04-22T00:45:06.356Z,16.60
2019-04-22T00:50:18.802Z,16.60
2019-04-22T00:55:23.030Z,16.60
2019-04-22T01:00:31.422Z,16.60
2019-04-22T01:05:41.931Z,16.60
2019-04-22T01:10:52.225Z,16.60
2019-04-22T01:16:01.186Z,16.50
2019-04-22T01:26:12.103Z,16.50
2019-04-22T01:31:07.742Z,16.40
2019-04-22T01:36:31.596Z,16.40
2019-04-22T01:41:48.957Z,16.40
2019-04-22T01:46:50.795Z,16.40
2019-04-22T01:57:03.636Z,16.30
2019-04-22T02:02:17.191Z,16.40
2019-04-22T02:07:25.414Z,16.40
2019-04-22T02:12:34.365Z,16.30
2019-04-22T02:17:36.844Z,16.30
2019-04-22T02:23:42.898Z,16.30
2019-04-22T02:28:33.731Z,16.40
2019-04-22T02:49:11.694Z,16.20
2019-04-22T02:59:26.287Z,16.20
2019-04-22T03:09:29.941Z,16.20
2019-04-22T03:14:44.082Z,16.20
2019-04-22T03:19:59.091Z,16.20
2019-04-22T03:25:14.079Z,16.30
2019-04-22T03:51:01.890Z,16.70
2019-04-22T04:00:58.668Z,16.80
2019-04-22T04:06:02.194Z,16.80
2019-04-22T04:11:10.456Z,16.70
2019-04-22T04:16:29.872Z,16.60
2019-04-22T04:21:33.122Z,16.50
2019-04-22T04:31:58.769Z,16.10
2019-04-22T04:42:17.941Z,16.00
2019-04-22T04:52:27.776Z,15.90
2019-04-22T05:02:46.744Z,15.80
2019-04-22T05:07:48.596Z,15.70
2019-04-22T05:12:57.200Z,15.70
2019-04-22T05:18:07.566Z,15.80
2019-04-22T05:23:05.812Z,15.80
2019-04-22T05:28:17.859Z,15.80
2019-04-22T05:33:21.684Z,15.80
2019-04-22T05:38:38.399Z,15.80
2019-04-22T05:43:34.439Z,15.90
2019-04-22T05:48:43.969Z,16.00
2019-04-22T05:53:57.552Z,16.10
2019-04-22T06:09:16.952Z,16.10
2019-04-22T06:14:23.010Z,16.20
2019-04-22T06:19:31.532Z,16.20
2019-04-22T06:24:54.131Z,16.30
2019-04-22T06:29:55.013Z,16.30
2019-04-22T06:35:09.715Z,16.20
2019-04-22T06:40:13.051Z,15.90
2019-04-22T06:45:24.945Z,15.80
2019-04-22T06:50:39.657Z,15.90
2019-04-22T06:55:41.382Z,15.90
2019-04-22T07:01:04.370Z,16.20
2019-04-22T07:05:52.498Z,16.10
2019-04-22T07:11:12.526Z,16.20
2019-04-22T07:16:16.404Z,16.30
2019-04-22T07:21:16.239Z,16.50
2019-04-22T07:26:30.465Z,16.90
2019-04-22T07:31:39.041Z,17.40
2019-04-22T07:41:50.880Z,17.90
2019-04-22T07:47:04.823Z,18.10
2019-04-22T07:52:09.807Z,18.20
2019-04-22T07:57:20.149Z,18.30
2019-04-22T08:02:26.217Z,18.30
2019-04-22T08:07:36.058Z,18.30
2019-04-22T08:12:44.239Z,18.70
2019-04-22T08:17:54.737Z,18.60
2019-04-22T08:22:57.601Z,18.80
2019-04-22T08:28:03.405Z,18.90
2019-04-22T08:33:09.709Z,18.80
2019-04-22T08:38:12.088Z,18.50
2019-04-22T08:43:32.964Z,18.60
2019-04-22T08:48:29.604Z,18.70
2019-04-22T08:53:40.161Z,18.60
2019-04-22T08:58:40.599Z,18.50
2019-04-22T09:03:58.441Z,18.40
2019-04-22T09:09:24.882Z,18.40
2019-04-22T09:14:16.627Z,18.70
2019-04-22T09:19:17.966Z,18.50
2019-04-22T09:24:25.141Z,18.20
2019-04-22T09:29:39.826Z,18.10
2019-04-22T09:34:40.274Z,18.30
2019-04-22T09:39:51.242Z,18.30
2019-04-22T09:44:56.605Z,18.30
2019-04-22T09:50:24.097Z,18.60
2019-04-22T09:55:14.056Z,18.80
2019-04-22T10:00:21.028Z,18.80
2019-04-22T10:05:28.561Z,19.00
2019-04-22T10:10:44.108Z,18.90
2019-04-22T10:16:03.135Z,18.50
2019-04-22T10:26:50.357Z,18.90
2019-04-22T10:32:20.559Z,19.20
2019-04-22T10:37:25.255Z,19.60
2019-04-22T10:42:49.474Z,19.50
2019-04-22T10:48:14.576Z,19.30
2019-04-22T10:53:39.694Z,19.30
2019-04-22T10:59:04.830Z,19.30
2019-04-22T11:04:11.210Z,19.60
2019-04-22T11:09:18.083Z,19.20
2019-04-22T11:14:23.743Z,18.60
2019-04-22T11:19:29.871Z,18.50
2019-04-22T11:24:36.867Z,18.60
2019-04-22T11:29:43.921Z,18.50
2019-04-22T11:34:49.488Z,18.40
2019-04-22T11:40:06.769Z,18.20
2019-04-22T11:45:05.557Z,18.00
2019-04-22T11:50:12.205Z,18.20
2019-04-22T11:55:19.148Z,18.00
2019-04-22T12:00:32.765Z,17.80
2019-04-22T12:05:41.793Z,17.80
2019-04-22T12:11:01.818Z,17.80
2019-04-22T12:16:07.524Z,17.80
2019-04-22T12:21:13.265Z,18.00
2019-04-22T12:26:21.452Z,18.00
2019-04-22T12:31:39.888Z,17.90
2019-04-22T12:36:46.830Z,17.90
2019-04-22T12:41:52.540Z,17.90
2019-04-22T12:47:00.333Z,18.10
2019-04-22T12:52:05.587Z,18.50
2019-04-22T12:57:12.333Z,18.60
2019-04-22T13:02:18.797Z,18.70
2019-04-22T13:07:24.241Z,18.60
2019-04-22T13:12:31.029Z,18.70
2019-04-22T13:17:37.956Z,18.40
2019-04-22T13:22:45.015Z,18.40
2019-04-22T13:27:51.187Z,18.80
2019-04-22T13:32:58.641Z,19.00
2019-04-22T13:38:04.845Z,19.10
2019-04-22T13:43:11.121Z,19.20
2019-04-22T13:48:41.790Z,19.20
2019-04-22T13:54:14.080Z,19.00
2019-04-22T13:58:44.836Z,19.10
2019-04-22T14:04:04.796Z,18.90
2019-04-22T14:09:16.644Z,18.80
2019-04-22T14:14:30.931Z,18.50
2019-04-22T14:19:42.357Z,18.50
2019-04-22T14:24:48.852Z,18.40
2019-04-22T14:29:55.595Z,18.50
2019-04-22T14:35:02.988Z,18.40
2019-04-22T14:40:11.815Z,18.40
2019-04-22T14:45:52.064Z,18.30
2019-04-22T14:50:48.228Z,18.50
2019-04-22T14:55:36.293Z,18.50
2019-04-22T15:00:45.981Z,18.40
2019-04-22T15:05:52.315Z,18.30
2019-04-22T15:10:58.301Z,18.30
2019-04-22T15:16:25.812Z,18.20
2019-04-22T15:21:32.489Z,18.00
2019-04-22T15:26:52.988Z,18.00
2019-04-22T15:32:07.582Z,17.90
2019-04-22T15:37:13.952Z,17.80
2019-04-22T15:42:27.636Z,17.80
2019-04-22T15:47:27.129Z,17.80
2019-04-22T15:52:41.702Z,17.80
2019-04-22T15:57:44.060Z,17.80
2019-04-22T16:02:49.927Z,17.80
2019-04-22T16:07:57.167Z,17.70
2019-04-22T16:13:10.573Z,17.70
2019-04-22T16:18:30.813Z,17.70
2019-04-22T16:23:58.633Z,17.80
2019-04-22T16:29:05.286Z,17.80
2019-04-22T16:34:11.440Z,17.70
2019-04-22T16:39:18.513Z,17.70
2019-04-22T16:44:26.737Z,17.70
2019-04-22T16:49:33.850Z,17.60
2019-04-22T16:54:40.042Z,17.60
2019-04-22T16:59:46.585Z,17.40
2019-04-22T17:05:07.431Z,17.40
2019-04-22T17:10:13.662Z,17.60
2019-04-22T17:15:20.740Z,17.60
2019-04-22T17:20:27.148Z,17.60
2019-04-22T17:25:34.183Z,17.50
2019-04-22T17:30:41.449Z,17.60
2019-04-22T17:35:49.912Z,17.50
2019-04-22T17:41:09.026Z,17.40
2019-04-22T17:46:24.681Z,17.30
2019-04-22T17:51:39.661Z,17.50
2019-04-22T17:56:48.710Z,17.40
2019-04-22T18:01:49.173Z,17.40
2019-04-22T18:07:07.377Z,17.40
2019-04-22T18:12:12.029Z,17.40
2019-04-22T18:17:18.763Z,17.30
2019-04-22T18:22:19.933Z,17.30
2019-04-22T18:32:30.638Z,17.20
2019-04-22T18:37:49.993Z,17.10
2019-04-22T18:42:58.533Z,17.10
2019-04-22T18:47:55.520Z,17.00
2019-04-22T18:53:31.864Z,16.90
2019-04-22T18:58:23.100Z,16.80
2019-04-22T19:03:20.285Z,16.80
2019-04-22T19:08:44.714Z,16.80
2019-04-22T19:14:40.753Z,16.70
2019-04-22T19:19:22.766Z,16.70
2019-04-22T19:24:09.112Z,16.60
2019-04-22T19:29:20.395Z,16.60
2019-04-22T19:34:28.767Z,16.60
2019-04-22T19:39:27.217Z,16.70
2019-04-22T19:44:37.770Z,16.70
2019-04-22T19:49:55.456Z,16.60
2019-04-22T19:54:57.240Z,16.70
2019-04-22T20:00:03.877Z,16.70
2019-04-22T20:05:33.654Z,16.70
2019-04-22T20:10:41.318Z,16.70
2019-04-22T20:15:37.177Z,16.70
2019-04-22T20:20:58.493Z,16.50
2019-04-22T20:25:51.169Z,16.30
2019-04-22T20:31:12.475Z,16.20
2019-04-22T20:36:26.940Z,16.00
2019-04-22T20:41:17.134Z,15.70
2019-04-22T20:46:24.089Z,15.80
2019-04-22T20:51:48.682Z,15.70
2019-04-22T20:56:38.627Z,15.80
2019-04-22T21:01:49.316Z,15.80
2019-04-22T21:06:53.039Z,15.90
2019-04-22T21:11:56.613Z,15.90
2019-04-22T21:17:15.620Z,16.00
2019-04-22T21:22:20.614Z,16.10
2019-04-22T21:27:32.486Z,16.20
2019-04-22T21:32:34.369Z,16.20
2019-04-22T21:37:42.981Z,16.20
2019-04-22T21:42:54.159Z,16.10
2019-04-22T21:48:08.274Z,16.10
2019-04-22T21:53:08.622Z,16.10
2019-04-22T21:58:31.521Z,16.10
2019-04-22T22:03:23.653Z,16.10
2019-04-22T22:08:32.155Z,16.00
2019-04-22T22:13:39.303Z,16.10
2019-04-22T22:18:35.094Z,16.10
2019-04-22T22:23:50.446Z,16.10
2019-04-22T22:29:04.833Z,16.00
2019-04-22T22:34:09.771Z,16.00
2019-04-22T22:39:05.734Z,15.90
2019-04-22T22:44:08.943Z,15.90
2019-04-22T22:49:28.674Z,15.90
2019-04-22T22:54:37.426Z,15.90
2019-04-22T22:59:38.331Z,15.80
2019-04-22T23:04:52.231Z,15.60
2019-04-22T23:09:55.141Z,15.60
2019-04-22T23:14:59.298Z,15.60
2019-04-22T23:19:53.744Z,15.70
2019-04-22T23:25:25.170Z,15.70
2019-04-22T23:30:38.319Z,15.60
2019-04-22T23:36:06.110Z,15.30
2019-04-22T23:46:48.400Z,14.80
2019-04-22T23:52:22.685Z,14.70
2019-04-22T23:57:00.123Z,14.80
